Time;durP1;ratioP1;P1;durP2;ratioP2;P2;SDS_P1;SDS_P2;PMS_P1;PMS_P2;Temp;Humidity;BMP_temperature;BMP_pressure;BME280_temperature;BME280_humidity;BME280_pressure;Samples;Min_cycle;Max_cycle;Signal;HPM_P1;HPM_P2
2021/06/25 00:02:09;;;;;;;0.40;0.30;;;17.40;99.90;;;;;;5010813;28;20227;-75
2021/06/25 00:04:35;;;;;;;0.50;0.30;;;17.30;99.90;;;;;;5011240;28;20203;-75
2021/06/25 00:07:00;;;;;;;0.60;0.40;;;17.30;99.90;;;;;;5012097;28;20183;-75
2021/06/25 00:09:26;;;;;;;0.73;0.50;;;17.30;99.90;;;;;;4994944;28;20310;-75
2021/06/25 00:11:52;;;;;;;0.33;0.33;;;17.30;99.90;;;;;;5010934;28;20207;-75
2021/06/25 00:14:21;;;;;;;0.60;0.30;;;17.20;99.90;;;;;;4994834;28;20180;-75
2021/06/25 00:16:47;;;;;;;0.27;0.20;;;17.30;99.90;;;;;;5010951;28;20179;-75
2021/06/25 00:19:13;;;;;;;0.23;0.23;;;17.30;99.90;;;;;;5011269;28;20203;-75
2021/06/25 00:21:38;;;;;;;0.30;0.30;;;17.30;99.90;;;;;;4994531;28;20753;-75
2021/06/25 00:24:04;;;;;;;0.40;0.30;;;17.20;99.90;;;;;;4994520;28;20182;-75
2021/06/25 00:26:30;;;;;;;0.10;0.10;;;17.20;99.90;;;;;;5010477;28;20180;-75
2021/06/25 00:28:55;;;;;;;0.20;0.20;;;17.20;99.90;;;;;;5011057;28;20686;-75
2021/06/25 00:31:21;;;;;;;0.10;0.10;;;17.20;99.90;;;;;;5012146;28;20215;-75
2021/06/25 00:33:46;;;;;;;0.30;0.20;;;17.20;99.90;;;;;;5011095;28;20176;-75
2021/06/25 00:36:12;;;;;;;0.40;0.40;;;17.20;99.90;;;;;;5010745;28;20254;-75
2021/06/25 00:38:37;;;;;;;0.20;0.20;;;17.10;99.90;;;;;;4994181;28;20210;-75
2021/06/25 00:41:03;;;;;;;0.40;0.40;;;17.10;99.90;;;;;;5010845;28;20206;-75
2021/06/25 00:43:29;;;;;;;0.53;0.53;;;17.10;99.90;;;;;;5010847;28;20472;-75
2021/06/25 00:45:54;;;;;;;0.20;0.20;;;17.20;99.90;;;;;;5011942;28;20207;-75
2021/06/25 00:48:20;;;;;;;0.20;0.20;;;17.20;99.90;;;;;;4994252;28;20192;-75
2021/06/25 00:50:45;;;;;;;0.40;0.33;;;17.20;99.90;;;;;;5010952;28;20195;-75
2021/06/25 00:53:11;;;;;;;0.40;0.40;;;17.20;99.90;;;;;;5010428;28;20187;-75
2021/06/25 00:55:42;;;;;;;0.17;0.17;;;17.20;99.90;;;;;;4994247;28;20450;-75
2021/06/25 00:58:12;;;;;;;0.50;0.20;;;17.10;99.90;;;;;;5014331;28;20180;-75
2021/06/25 01:00:37;;;;;;;0.30;0.30;;;17.10;99.90;;;;;;5014721;28;20203;-75
2021/06/25 01:03:03;;;;;;;0.23;0.23;;;17.10;99.90;;;;;;5014575;28;20667;-75
2021/06/25 01:05:29;;;;;;;0.40;0.33;;;17.00;99.90;;;;;;4997685;28;20227;-75
2021/06/25 01:10:20;;;;;;;0.80;0.40;;;17.00;99.90;;;;;;5037649;23;20250;-78
2021/06/25 01:12:46;;;;;;;0.17;0.17;;;16.90;99.90;;;;;;5015498;28;20187;-78
2021/06/25 01:15:12;;;;;;;0.27;0.20;;;16.90;99.90;;;;;;5015660;28;20183;-78
2021/06/25 01:17:39;;;;;;;0.37;0.20;;;16.90;99.90;;;;;;4999205;28;20179;-79
2021/06/25 01:20:16;;;;;;;0.20;0.10;;;16.90;99.90;;;;;;5011860;28;20246;-78
2021/06/25 01:22:42;;;;;;;0.20;0.20;;;16.90;99.90;;;;;;4980583;28;20662;-78
2021/06/25 01:25:08;;;;;;;0.87;0.30;;;16.90;99.90;;;;;;4995620;28;20200;-78
2021/06/25 01:27:33;;;;;;;0.20;0.20;;;16.90;99.90;;;;;;4996623;28;20183;-78
2021/06/25 01:29:59;;;;;;;0.20;0.20;;;16.80;99.90;;;;;;4995529;28;20254;-78
2021/06/25 01:32:25;;;;;;;0.23;0.23;;;16.80;99.90;;;;;;4995732;28;20169;-78
2021/06/25 01:34:51;;;;;;;0.30;0.20;;;16.80;99.90;;;;;;4995823;28;20280;-78
2021/06/25 01:37:16;;;;;;;0.30;0.20;;;16.80;99.90;;;;;;4978896;28;20188;-78
2021/06/25 01:39:42;;;;;;;0.30;0.23;;;16.70;99.90;;;;;;4995464;28;20261;-78
2021/06/25 01:42:08;;;;;;;0.20;0.17;;;16.80;99.90;;;;;;4995554;28;20172;-78
2021/06/25 01:44:35;;;;;;;0.20;0.20;;;16.80;99.90;;;;;;4978942;28;20211;-79
2021/06/25 01:47:01;;;;;;;0.20;0.20;;;16.70;99.90;;;;;;4978777;28;20184;-78
2021/06/25 01:49:27;;;;;;;0.30;0.10;;;16.70;99.90;;;;;;4994815;28;20203;-78
2021/06/25 01:51:52;;;;;;;0.60;0.40;;;16.80;99.90;;;;;;4994907;28;20176;-78
2021/06/25 01:54:18;;;;;;;1.10;0.97;;;16.70;99.90;;;;;;4995146;28;20551;-78
2021/06/25 01:56:43;;;;;;;0.37;0.30;;;16.70;99.90;;;;;;4978463;28;20607;-78
2021/06/25 01:59:09;;;;;;;0.37;0.20;;;16.70;99.90;;;;;;4978925;28;20196;-79
2021/06/25 02:01:35;;;;;;;0.10;0.10;;;16.60;99.90;;;;;;4995023;28;20631;-79
2021/06/25 02:04:00;;;;;;;0.20;0.20;;;16.60;99.90;;;;;;4995027;28;20172;-78
2021/06/25 02:06:26;;;;;;;0.30;0.20;;;16.60;99.90;;;;;;4978339;28;20239;-79
2021/06/25 02:08:51;;;;;;;0.67;0.40;;;16.60;99.90;;;;;;4978126;28;20223;-78
2021/06/25 02:11:17;;;;;;;0.37;0.33;;;16.60;99.90;;;;;;4978562;28;20172;-79
2021/06/25 02:13:43;;;;;;;0.30;0.30;;;16.60;99.90;;;;;;4994670;28;20179;-78
2021/06/25 02:16:09;;;;;;;0.30;0.30;;;16.60;99.90;;;;;;4977778;28;20187;-78
2021/06/25 02:18:34;;;;;;;0.27;0.20;;;16.60;99.90;;;;;;4994524;28;20231;-78
2021/06/25 02:21:00;;;;;;;0.20;0.20;;;16.50;99.90;;;;;;4994652;28;20235;-78
2021/06/25 02:23:26;;;;;;;0.57;0.30;;;16.50;99.90;;;;;;4994735;28;20192;-78
2021/06/25 02:25:51;;;;;;;0.40;0.30;;;16.50;99.90;;;;;;4993916;28;20269;-78
2021/06/25 02:28:18;;;;;;;0.70;0.30;;;16.50;99.90;;;;;;4994475;28;20202;-79
2021/06/25 02:30:43;;;;;;;0.20;0.20;;;16.50;99.90;;;;;;4994828;28;20188;-79
2021/06/25 02:33:09;;;;;;;0.83;0.50;;;16.40;99.90;;;;;;4994057;28;20182;-78
2021/06/25 02:35:34;;;;;;;0.80;0.40;;;16.40;99.90;;;;;;4994024;28;20187;-78
2021/06/25 02:38:00;;;;;;;0.40;0.40;;;16.30;99.90;;;;;;4993935;28;20184;-79
2021/06/25 02:40:25;;;;;;;0.20;0.20;;;16.30;99.90;;;;;;4994267;28;20176;-78
2021/06/25 02:42:51;;;;;;;0.20;0.20;;;16.30;99.90;;;;;;4994439;28;20184;-78
2021/06/25 02:45:17;;;;;;;0.30;0.30;;;16.20;99.90;;;;;;4994113;28;20262;-78
2021/06/25 02:47:42;;;;;;;0.73;0.30;;;16.20;99.90;;;;;;4993864;28;20247;-78
2021/06/25 02:50:09;;;;;;;0.97;0.33;;;16.20;99.90;;;;;;5010471;28;20208;-79
2021/06/25 02:52:35;;;;;;;0.50;0.50;;;16.10;99.90;;;;;;4993606;28;20188;-78
2021/06/25 02:55:00;;;;;;;0.37;0.20;;;16.10;99.90;;;;;;4994063;28;20192;-78
2021/06/25 02:57:26;;;;;;;0.60;0.40;;;16.00;99.90;;;;;;4993789;28;20180;-78
2021/06/25 02:59:52;;;;;;;0.20;0.20;;;15.90;99.90;;;;;;4993694;28;20211;-78
2021/06/25 03:02:17;;;;;;;0.30;0.27;;;15.90;99.90;;;;;;4993686;28;20383;-79
2021/06/25 03:04:43;;;;;;;0.30;0.30;;;15.90;99.90;;;;;;4993613;28;20207;-79
2021/06/25 03:07:08;;;;;;;0.20;0.20;;;15.80;99.90;;;;;;5009763;28;20192;-79
2021/06/25 03:09:34;;;;;;;0.47;0.27;;;15.70;99.90;;;;;;4993351;28;20671;-79
2021/06/25 03:11:59;;;;;;;0.23;0.20;;;15.70;99.90;;;;;;4993752;28;20231;-79
2021/06/25 03:14:25;;;;;;;0.20;0.20;;;15.60;99.90;;;;;;4993022;28;20182;-79
2021/06/25 03:16:51;;;;;;;0.20;0.20;;;15.60;99.90;;;;;;4993171;28;20177;-79
2021/06/25 03:19:16;;;;;;;0.70;0.40;;;15.60;99.90;;;;;;4992771;28;20235;-78
2021/06/25 03:21:42;;;;;;;0.20;0.20;;;15.50;99.90;;;;;;4993248;28;20275;-78
2021/06/25 03:24:08;;;;;;;0.30;0.30;;;15.50;99.90;;;;;;4993448;28;20180;-78
2021/06/25 03:26:34;;;;;;;0.20;0.20;;;15.40;99.90;;;;;;4993212;28;20203;-78
2021/06/25 03:28:59;;;;;;;0.43;0.30;;;15.40;99.90;;;;;;4993243;28;20204;-78
2021/06/25 03:31:25;;;;;;;0.43;0.43;;;15.40;99.90;;;;;;5009569;28;20183;-78
2021/06/25 03:33:50;;;;;;;0.20;0.20;;;15.30;99.90;;;;;;4993159;28;20218;-78
2021/06/25 03:36:16;;;;;;;0.20;0.20;;;15.20;99.90;;;;;;4993196;28;20177;-78
2021/06/25 03:38:41;;;;;;;0.40;0.40;;;15.20;99.90;;;;;;5006826;28;20196;-78
2021/06/25 03:41:07;;;;;;;0.90;0.50;;;15.20;99.90;;;;;;4974014;28;20173;-78
2021/06/25 03:43:33;;;;;;;0.20;0.20;;;15.20;99.90;;;;;;4974904;28;20205;-78
2021/06/25 03:45:59;;;;;;;0.30;0.30;;;15.20;99.90;;;;;;4989831;28;20208;-78
2021/06/25 03:48:24;;;;;;;0.20;0.20;;;15.20;99.90;;;;;;4973489;28;20197;-78
2021/06/25 03:50:50;;;;;;;1.70;0.30;;;15.20;99.90;;;;;;4973748;28;20180;-79
2021/06/25 03:53:15;;;;;;;0.40;0.40;;;15.20;99.90;;;;;;4957013;28;20675;-79
2021/06/25 03:56:09;;;;;;;0.50;0.40;;;15.30;99.90;;;;;;4973226;28;20600;-78
2021/06/25 03:58:27;;;;;;;0.40;0.40;;;15.30;99.90;;;;;;4974405;28;20200;-79
2021/06/25 04:00:53;;;;;;;0.40;0.40;;;15.20;99.90;;;;;;4957242;28;20641;-78
2021/06/25 04:03:18;;;;;;;0.67;0.40;;;15.30;99.90;;;;;;4957436;28;20244;-78
2021/06/25 04:05:44;;;;;;;0.30;0.30;;;15.30;99.90;;;;;;4972684;28;20200;-78
2021/06/25 04:08:09;;;;;;;0.73;0.30;;;15.30;99.90;;;;;;4989045;28;20169;-78
2021/06/25 04:10:35;;;;;;;0.97;0.67;;;15.40;99.90;;;;;;4973457;28;20207;-78
2021/06/25 04:13:01;;;;;;;0.50;0.30;;;15.50;99.90;;;;;;4973338;28;20177;-78
2021/06/25 04:15:26;;;;;;;0.80;0.50;;;15.50;99.90;;;;;;4989621;28;20180;-78
2021/06/25 04:17:52;;;;;;;0.93;0.40;;;15.60;99.90;;;;;;4972967;28;20184;-78
2021/06/25 04:20:18;;;;;;;0.40;0.40;;;15.80;99.90;;;;;;4989139;28;20202;-78
2021/06/25 04:22:43;;;;;;;0.40;0.40;;;15.80;99.90;;;;;;4973258;28;20216;-78
2021/06/25 04:25:09;;;;;;;0.50;0.40;;;15.90;99.90;;;;;;4956977;28;20259;-78
2021/06/25 04:27:35;;;;;;;0.50;0.50;;;16.00;99.90;;;;;;4989527;28;20177;-78
2021/06/25 04:30:01;;;;;;;0.93;0.67;;;;;;;;;;4973439;28;20671;-78
2021/06/25 04:32:28;;;;;;;0.90;0.50;;;16.20;99.90;;;;;;4976897;28;20183;-78
2021/06/25 04:34:54;;;;;;;0.50;0.40;;;16.20;99.90;;;;;;4977198;28;20191;-78
2021/06/25 04:37:20;;;;;;;0.47;0.40;;;16.30;99.90;;;;;;4976968;28;20189;-77
2021/06/25 04:39:45;;;;;;;1.00;0.50;;;16.30;99.90;;;;;;4960301;28;20205;-80
2021/06/25 04:42:11;;;;;;;0.47;0.47;;;16.30;99.90;;;;;;4960390;28;20186;-80
2021/06/25 04:44:38;;;;;;;0.57;0.40;;;16.40;99.90;;;;;;4993271;28;20201;-81
2021/06/25 04:47:03;;;;;;;0.57;0.57;;;16.40;99.90;;;;;;4959581;28;20276;-78
2021/06/25 04:49:29;;;;;;;0.60;0.40;;;16.40;99.90;;;;;;4960609;28;20240;-79
2021/06/25 04:51:55;;;;;;;0.30;0.30;;;16.30;99.90;;;;;;4960757;28;20181;-78
2021/06/25 04:54:20;;;;;;;2.30;0.50;;;16.30;99.90;;;;;;4960817;28;20260;-79
2021/06/25 04:56:46;;;;;;;0.40;0.40;;;16.20;99.90;;;;;;4976913;28;20208;-78
2021/06/25 04:59:11;;;;;;;0.50;0.50;;;16.20;99.90;;;;;;4960832;28;20197;-79
2021/06/25 05:01:37;;;;;;;1.23;0.60;;;16.20;99.90;;;;;;4960536;28;20181;-79
2021/06/25 05:04:02;;;;;;;0.40;0.37;;;16.20;99.90;;;;;;4995691;28;20682;-78
2021/06/25 05:06:28;;;;;;;0.60;0.50;;;16.20;99.90;;;;;;4980917;28;20289;-77
2021/06/25 05:08:54;;;;;;;1.27;0.63;;;16.10;99.90;;;;;;4976379;28;20573;-79
2021/06/25 05:11:20;;;;;;;0.60;0.40;;;16.60;99.90;;;;;;4981752;28;20199;-79
2021/06/25 05:13:46;;;;;;;0.53;0.53;;;16.00;99.90;;;;;;4965126;28;20185;-79
2021/06/25 05:16:11;;;;;;;0.67;0.50;;;16.00;99.90;;;;;;4964795;28;20184;-79
2021/06/25 05:18:37;;;;;;;1.37;0.73;;;16.10;99.90;;;;;;4981096;28;20283;-79
2021/06/25 05:21:02;;;;;;;0.40;0.40;;;16.10;99.90;;;;;;4982642;28;20184;-79
2021/06/25 05:23:28;;;;;;;1.03;1.03;;;16.20;99.90;;;;;;4997641;28;20188;-79
2021/06/25 05:25:56;;;;;;;0.47;0.47;;;16.30;99.90;;;;;;5001731;28;20234;-80
2021/06/25 05:28:22;;;;;;;0.37;0.37;;;16.40;99.90;;;;;;5001765;28;20200;-78
2021/06/25 05:30:47;;;;;;;0.73;0.40;;;16.50;99.90;;;;;;4999234;28;20184;-79
2021/06/25 05:33:13;;;;;;;0.50;0.50;;;16.50;99.90;;;;;;5016115;28;20640;-79
2021/06/25 05:35:39;;;;;;;0.83;0.83;;;16.60;99.90;;;;;;5000186;28;20561;-80
2021/06/25 05:38:10;;;;;;;0.97;0.57;;;16.60;99.90;;;;;;4999788;28;20183;-79
2021/06/25 05:40:36;;;;;;;0.50;0.43;;;16.70;99.90;;;;;;5014032;28;20177;-79
2021/06/25 05:43:05;;;;;;;0.63;0.53;;;16.90;99.90;;;;;;4997035;28;20269;-79
2021/06/25 05:45:32;;;;;;;0.50;0.13;;;17.50;99.90;;;;;;5014869;28;20216;-79
2021/06/25 05:47:57;;;;;;;0.37;0.37;;;18.50;99.90;;;;;;5013494;28;20173;-79
2021/06/25 05:50:23;;;;;;;0.50;0.40;;;19.30;99.90;;;;;;5013490;28;20203;-79
2021/06/25 05:52:48;;;;;;;1.60;0.50;;;19.80;99.90;;;;;;5013862;28;20541;-79
2021/06/25 05:55:14;;;;;;;1.00;0.60;;;20.20;99.90;;;;;;4996670;28;20689;-79
2021/06/25 05:57:40;;;;;;;0.30;0.30;;;20.50;99.90;;;;;;4997188;28;20562;-80
2021/06/25 06:00:06;;;;;;;1.07;0.30;;;20.60;99.90;;;;;;4997180;28;20215;-80
2021/06/25 06:02:32;;;;;;;0.27;0.27;;;20.90;99.90;;;;;;5013679;28;20191;-79
2021/06/25 06:04:58;;;;;;;0.67;0.30;;;21.00;99.90;;;;;;4996845;28;20572;-80
2021/06/25 06:07:23;;;;;;;0.77;0.33;;;21.00;99.90;;;;;;4997671;28;20176;-80
2021/06/25 06:09:49;;;;;;;0.30;0.30;;;21.10;99.90;;;;;;5014821;28;20629;-79
2021/06/25 06:12:14;;;;;;;0.37;0.20;;;21.30;99.90;;;;;;5013531;28;20191;-79
2021/06/25 06:14:40;;;;;;;0.40;0.33;;;21.50;99.90;;;;;;4996102;28;20187;-79
2021/06/25 06:17:06;;;;;;;0.40;0.30;;;21.60;99.90;;;;;;4996144;28;20191;-79
2021/06/25 06:19:39;;;;;;;0.60;0.40;;;22.10;99.90;;;;;;4996047;28;20204;-79
2021/06/25 06:33:03;;;;;;;0.40;0.30;;;24.70;99.90;;;;;;5011584;28;20615;-80
2021/06/25 06:35:29;;;;;;;1.60;0.30;;;23.90;99.90;;;;;;5013539;28;20176;-79
2021/06/25 06:38:01;;;;;;;0.40;0.30;;;23.40;99.60;;;;;;5013461;28;20521;-79
2021/06/25 06:40:26;;;;;;;0.43;0.20;;;23.00;99.90;;;;;;4997195;28;20169;-79
2021/06/25 06:42:52;;;;;;;0.50;0.30;;;22.40;99.90;;;;;;4992892;28;20212;-79
2021/06/25 06:45:18;;;;;;;0.47;0.40;;;21.80;99.90;;;;;;4976925;28;20258;-85
2021/06/25 06:47:44;;;;;;;0.40;0.20;;;21.70;99.90;;;;;;4976459;28;20232;-79
2021/06/25 06:50:10;;;;;;;0.60;0.33;;;21.60;99.90;;;;;;4976879;28;20652;-81
2021/06/25 06:52:36;;;;;;;0.40;0.30;;;21.60;99.90;;;;;;4961395;28;20204;-79
2021/06/25 06:55:01;;;;;;;0.63;0.53;;;22.00;99.90;;;;;;4958391;28;20577;-78
2021/06/25 06:57:27;;;;;;;0.20;0.20;;;22.10;99.90;;;;;;4960470;28;20557;-79
2021/06/25 06:59:52;;;;;;;0.83;0.57;;;21.90;99.90;;;;;;4962533;28;20196;-79
2021/06/25 07:02:18;;;;;;;0.40;0.40;;;21.50;99.90;;;;;;4977643;28;20708;-79
2021/06/25 07:04:44;;;;;;;0.17;0.17;;;21.40;99.90;;;;;;4958701;28;20323;-77
2021/06/25 07:07:10;;;;;;;0.17;0.13;;;21.40;99.90;;;;;;4973303;28;20625;-76
2021/06/25 07:09:35;;;;;;;0.13;0.13;;;21.40;99.90;;;;;;4987812;28;20247;-77
2021/06/25 07:12:01;;;;;;;0.20;0.20;;;21.40;99.90;;;;;;4984139;28;20185;-76
2021/06/25 07:14:27;;;;;;;0.20;0.20;;;21.40;99.90;;;;;;4982748;28;20633;-77
2021/06/25 07:16:53;;;;;;;0.10;0.10;;;21.50;99.90;;;;;;5018903;23;20282;-76
2021/06/25 07:19:18;;;;;;;0.10;0.10;;;21.60;99.90;;;;;;4992326;28;20179;-76
2021/06/25 07:21:44;;;;;;;0.30;0.07;;;21.70;99.90;;;;;;4992503;28;20180;-74
2021/06/25 07:24:10;;;;;;;0.30;0.30;;;21.90;99.90;;;;;;4992579;28;20229;-75
2021/06/25 07:26:35;;;;;;;0.30;0.17;;;22.50;99.30;;;;;;4991991;28;20220;-74
2021/06/25 07:29:01;;;;;;;0.37;0.10;;;23.10;99.70;;;;;;4976764;28;20191;-77
2021/06/25 07:31:26;;;;;;;0.27;0.20;;;23.30;97.70;;;;;;5028297;28;20229;-75
2021/06/25 07:33:52;;;;;;;0.70;0.40;;;23.30;96.40;;;;;;5028366;28;20279;-75
2021/06/25 07:36:18;;;;;;;0.37;0.37;;;23.30;94.30;;;;;;5029136;28;20195;-74
2021/06/25 07:38:43;;;;;;;0.30;0.17;;;23.50;93.10;;;;;;5028153;28;20193;-74
2021/06/25 07:41:09;;;;;;;0.40;0.20;;;23.30;92.50;;;;;;5002664;28;20191;-75
2021/06/25 07:43:34;;;;;;;0.23;0.10;;;23.00;92.30;;;;;;5008291;28;20215;-76
2021/06/25 07:46:00;;;;;;;0.20;0.20;;;22.80;93.50;;;;;;5008126;28;20208;-74
2021/06/25 07:48:25;;;;;;;0.10;0.10;;;22.80;93.70;;;;;;4991886;28;20662;-75
2021/06/25 07:50:51;;;;;;;0.20;0.20;;;22.80;93.10;;;;;;5008326;28;20557;-76
2021/06/25 07:53:16;;;;;;;0.40;0.20;;;22.40;95.00;;;;;;4991886;28;20176;-74
2021/06/25 07:55:43;;;;;;;0.40;0.20;;;22.00;98.10;;;;;;5008203;28;20242;-74
2021/06/25 07:58:13;;;;;;;0.17;0.10;;;21.90;95.80;;;;;;5007846;28;20207;-75
2021/06/25 08:00:39;;;;;;;0.20;0.17;;;21.60;95.80;;;;;;5008130;28;20203;-74
2021/06/25 08:03:05;;;;;;;0.40;0.23;;;21.50;96.10;;;;;;5022811;28;20215;-73
2021/06/25 08:05:30;;;;;;;0.13;0.10;;;21.50;96.00;;;;;;5023304;28;20235;-75
2021/06/25 08:07:56;;;;;;;0.20;0.20;;;21.50;97.10;;;;;;4992624;28;20204;-76
2021/06/25 08:10:21;;;;;;;0.10;0.10;;;21.50;95.30;;;;;;5008071;28;20239;-74
2021/06/25 08:12:47;;;;;;;0.10;0.10;;;21.30;95.20;;;;;;5008061;28;20210;-75
2021/06/25 08:15:12;;;;;;;0.10;0.10;;;21.60;94.50;;;;;;5015345;28;20184;-74
2021/06/25 08:17:38;;;;;;;0.10;0.10;;;21.60;93.30;;;;;;5007455;28;20678;-75
2021/06/25 08:20:05;;;;;;;0.10;0.10;;;21.50;88.50;;;;;;4991523;28;20896;-74
2021/06/25 08:22:30;;;;;;;0.17;0.17;;;21.30;91.40;;;;;;4992076;28;20207;-74
2021/06/25 08:24:56;;;;;;;0.13;0.10;;;21.10;91.80;;;;;;4959070;28;20679;-74
2021/06/25 08:27:22;;;;;;;0.27;0.10;;;21.00;90.70;;;;;;4991208;28;20266;-75
2021/06/25 08:29:47;;;;;;;0.10;0.10;;;21.10;95.80;;;;;;4991313;28;20618;-76
2021/06/25 08:32:13;;;;;;;0.10;0.10;;;21.30;97.40;;;;;;4991274;28;20176;-76
2021/06/25 08:34:39;;;;;;;0.47;0.40;;;21.50;92.80;;;;;;4991580;28;20208;-75
2021/06/25 08:37:04;;;;;;;0.10;0.10;;;21.50;91.90;;;;;;4991088;28;20203;-75
2021/06/25 08:39:30;;;;;;;0.20;0.00;;;21.50;91.70;;;;;;4990773;28;20558;-74
2021/06/25 08:42:01;;;;;;;0.20;0.20;;;21.50;92.20;;;;;;4989500;28;20648;-74
2021/06/25 08:44:27;;;;;;;6.23;1.13;;;21.50;89.70;;;;;;4975837;28;20597;-75
2021/06/25 08:46:52;;;;;;;0.10;0.10;;;21.50;88.50;;;;;;4974724;28;20208;-74
2021/06/25 08:49:18;;;;;;;0.20;0.20;;;21.70;92.10;;;;;;4991070;28;20605;-74
2021/06/25 08:51:46;;;;;;;0.40;0.37;;;21.80;85.00;;;;;;4991064;28;20203;-74
2021/06/25 08:54:11;;;;;;;0.10;0.10;;;21.80;85.40;;;;;;4975774;28;20231;-74
2021/06/25 08:56:37;;;;;;;0.10;0.10;;;21.80;85.00;;;;;;4974789;28;20208;-74
2021/06/25 08:59:02;;;;;;;0.30;0.13;;;21.70;85.40;;;;;;4992112;28;20184;-74
2021/06/25 09:01:32;;;;;;;0.10;0.10;;;21.60;86.80;;;;;;4991231;28;20584;-74
2021/06/25 09:03:58;;;;;;;1.33;0.20;;;21.60;87.20;;;;;;4975168;28;20199;-74
2021/06/25 09:06:25;;;;;;;0.30;0.20;;;21.60;90.30;;;;;;4990846;28;20691;-75
2021/06/25 09:08:51;;;;;;;0.30;0.10;;;21.60;86.20;;;;;;4991123;28;20639;-74
2021/06/25 09:11:19;;;;;;;0.00;0.00;;;21.60;86.30;;;;;;4990864;28;20204;-74
2021/06/25 09:13:44;;;;;;;0.20;0.20;;;21.40;86.20;;;;;;4991257;28;20176;-74
2021/06/25 09:16:26;;;;;;;0.63;0.30;;;21.50;90.60;;;;;;4990782;28;20704;-74
2021/06/25 09:19:00;;;;;;;0.10;0.10;;;21.60;90.90;;;;;;4978929;28;20176;-74
2021/06/25 09:21:26;;;;;;;0.20;0.20;;;21.60;86.90;;;;;;4994403;28;20327;-74
2021/06/25 09:23:52;;;;;;;0.40;0.30;;;21.70;87.40;;;;;;4978387;28;20180;-74
2021/06/25 09:26:21;;;;;;;0.57;0.20;;;21.80;88.30;;;;;;4977984;28;20212;-74
2021/06/25 09:28:47;;;;;;;0.27;0.27;;;21.70;86.10;;;;;;4994461;28;20665;-74
2021/06/25 09:31:20;;;;;;;0.30;0.20;;;21.60;89.10;;;;;;4978320;28;20183;-74
2021/06/25 09:33:50;;;;;;;0.27;0.20;;;21.70;91.30;;;;;;4994397;28;20172;-75
2021/06/25 09:36:23;;;;;;;0.17;0.10;;;21.80;90.90;;;;;;4993865;28;20706;-74
2021/06/25 09:38:58;;;;;;;0.10;0.10;;;21.90;89.90;;;;;;4994291;28;20291;-74
2021/06/25 09:41:24;;;;;;;0.20;0.20;;;22.10;91.80;;;;;;4995468;28;20179;-74
2021/06/25 09:44:00;;;;;;;0.43;0.40;;;22.10;88.60;;;;;;4995406;28;20183;-74
2021/06/25 09:46:36;;;;;;;0.23;0.23;;;22.20;90.50;;;;;;4978038;28;20247;-75
2021/06/25 09:49:06;;;;;;;0.40;0.33;;;22.10;91.00;;;;;;4993452;28;20552;-75
2021/06/25 09:51:32;;;;;;;0.40;0.20;;;22.10;90.80;;;;;;5010045;28;20647;-75
2021/06/25 09:54:15;;;;;;;0.20;0.20;;;21.90;91.10;;;;;;5010371;28;20212;-75
2021/06/25 09:56:48;;;;;;;0.30;0.20;;;21.90;92.60;;;;;;5009881;28;20225;-75
2021/06/25 10:02:31;;;;;;;0.20;0.20;;;21.90;93.10;;;;;;4976158;28;20165;-75
2021/06/25 10:05:13;;;;;;;0.33;0.20;;;21.80;93.90;;;;;;4966874;28;20691;-75
2021/06/25 10:07:39;;;;;;;0.93;0.60;;;21.80;92.80;;;;;;4991384;28;20196;-76
2021/06/25 10:10:10;;;;;;;0.93;0.50;;;21.80;96.10;;;;;;4990984;28;20185;-75
2021/06/25 10:12:37;;;;;;;0.33;0.23;;;21.90;99.00;;;;;;4989989;28;20652;-75
2021/06/25 10:15:03;;;;;;;1.17;0.40;;;22.10;99.50;;;;;;4990397;28;20177;-74
2021/06/25 10:17:29;;;;;;;0.30;0.27;;;22.10;97.20;;;;;;5003218;28;20311;-74
2021/06/25 10:20:07;;;;;;;0.40;0.30;;;22.10;99.10;;;;;;4977435;28;20267;-74
2021/06/25 10:22:34;;;;;;;0.73;0.30;;;22.10;98.90;;;;;;4995230;28;20180;-74
2021/06/25 10:24:59;;;;;;;0.53;0.40;;;22.00;98.00;;;;;;4976998;28;20266;-76
2021/06/25 10:27:25;;;;;;;0.67;0.40;;;22.10;99.70;;;;;;4960836;28;20200;-75
2021/06/25 10:29:50;;;;;;;0.30;0.27;;;22.20;99.90;;;;;;4977012;28;20196;-75
2021/06/25 10:32:17;;;;;;;0.50;0.40;;;22.40;99.90;;;;;;5009609;28;20214;-75
2021/06/25 10:34:43;;;;;;;0.30;0.30;;;22.60;99.90;;;;;;4994654;28;20636;-73
2021/06/25 10:37:13;;;;;;;0.40;0.30;;;22.90;99.90;;;;;;5009847;28;20196;-78
2021/06/25 10:39:39;;;;;;;0.87;0.53;;;22.90;99.90;;;;;;5008737;28;20644;-75
2021/06/25 10:42:09;;;;;;;1.10;0.57;;;22.90;99.90;;;;;;4989795;28;20189;-74
2021/06/25 10:44:54;;;;;;;0.97;0.50;;;22.90;99.90;;;;;;5013227;28;20175;-74
2021/06/25 10:47:27;;;;;;;0.33;0.13;;;22.80;99.90;;;;;;4973315;28;20196;-75
2021/06/25 10:49:59;;;;;;;0.63;0.20;;;23.00;99.90;;;;;;4976702;28;20184;-74
2021/06/25 10:52:29;;;;;;;1.50;0.33;;;23.00;99.90;;;;;;4994225;28;20184;-74
2021/06/25 10:55:07;;;;;;;0.40;0.20;;;23.10;99.90;;;;;;4960653;28;20192;-74
2021/06/25 10:57:34;;;;;;;0.60;0.30;;;23.00;99.90;;;;;;4991578;28;20214;-73
2021/06/25 11:00:00;;;;;;;1.20;0.47;;;23.00;99.90;;;;;;5008684;28;20310;-75
2021/06/25 11:02:42;;;;;;;0.70;0.50;;;23.20;99.90;;;;;;4992401;28;20275;-75
2021/06/25 11:05:29;;;;;;;0.73;0.37;;;23.20;99.90;;;;;;5009040;28;20196;-75
2021/06/25 11:08:00;;;;;;;0.70;0.40;;;22.80;99.90;;;;;;4993734;28;20571;-75
2021/06/25 11:10:33;;;;;;;1.13;0.93;;;22.80;99.90;;;;;;5008834;28;20164;-76
2021/06/25 11:13:14;;;;;;;0.73;0.40;;;23.00;99.90;;;;;;5008890;28;20183;-75
2021/06/25 11:15:43;;;;;;;1.37;0.47;;;23.30;99.90;;;;;;4993786;28;20187;-75
2021/06/25 11:18:16;;;;;;;0.63;0.30;;;23.40;99.90;;;;;;5008676;28;20572;-75
2021/06/25 11:20:47;;;;;;;0.80;0.40;;;23.20;99.90;;;;;;5008712;28;20184;-75
2021/06/25 11:23:17;;;;;;;1.00;0.90;;;23.10;99.90;;;;;;4993754;28;20177;-76
2021/06/25 11:25:59;;;;;;;0.87;0.30;;;23.10;99.90;;;;;;4992232;28;20201;-76
2021/06/25 11:28:30;;;;;;;1.90;0.67;;;23.00;99.90;;;;;;5008529;28;20180;-75
2021/06/25 11:31:02;;;;;;;1.00;0.30;;;22.90;99.90;;;;;;4993791;28;20233;-77
2021/06/25 11:33:48;;;;;;;0.43;0.30;;;23.00;99.90;;;;;;4992221;28;20181;-74
2021/06/25 11:36:13;;;;;;;1.23;0.30;;;23.00;99.90;;;;;;5007332;28;20228;-74
2021/06/25 11:39:14;;;;;;;0.80;0.40;;;23.00;99.90;;;;;;4992013;28;20204;-74
2021/06/25 11:41:58;;;;;;;0.57;0.40;;;23.00;99.90;;;;;;5007803;28;20180;-74
2021/06/25 11:44:24;;;;;;;1.97;0.50;;;23.20;99.90;;;;;;4993225;28;20678;-74
2021/06/25 11:46:57;;;;;;;0.80;0.60;;;23.00;99.90;;;;;;4992860;28;20292;-75
2021/06/25 11:49:28;;;;;;;1.13;0.40;;;22.90;99.90;;;;;;5008430;28;20172;-75
2021/06/25 11:51:54;;;;;;;3.90;0.90;;;23.00;99.90;;;;;;4994284;28;20263;-75
2021/06/25 11:54:21;;;;;;;0.97;0.50;;;23.10;99.90;;;;;;4992037;28;20303;-75
2021/06/25 11:56:48;;;;;;;1.47;0.90;;;23.20;99.90;;;;;;4991807;28;20204;-75
2021/06/25 11:59:14;;;;;;;1.40;0.50;;;23.10;99.90;;;;;;4992505;28;20191;-75
2021/06/25 12:01:50;;;;;;;3.47;0.70;;;23.10;99.90;;;;;;5009444;28;20179;-76
2021/06/25 12:04:42;;;;;;;1.90;0.80;;;23.00;99.90;;;;;;5009872;28;20184;-77
2021/06/25 12:07:15;;;;;;;1.30;0.70;;;22.90;99.90;;;;;;5009512;28;20204;-74
2021/06/25 12:09:45;;;;;;;1.73;0.63;;;22.80;99.90;;;;;;5009032;28;20157;-75
2021/06/25 12:12:21;;;;;;;1.57;0.70;;;22.80;99.90;;;;;;5007559;28;20208;-74
2021/06/25 12:14:48;;;;;;;2.07;0.80;;;23.00;99.90;;;;;;5006987;28;20255;-75
2021/06/25 12:17:14;;;;;;;2.87;1.37;;;23.10;99.90;;;;;;4989048;28;20203;-74
2021/06/25 12:19:40;;;;;;;0.87;0.60;;;23.10;99.90;;;;;;5006964;28;20211;-74
2021/06/25 12:22:07;;;;;;;2.47;1.50;;;23.20;99.90;;;;;;4974984;28;20608;-74
2021/06/25 12:24:53;;;;;;;0.93;0.50;;;23.20;99.90;;;;;;4991932;28;20239;-74
2021/06/25 12:27:18;;;;;;;2.07;0.70;;;23.20;99.90;;;;;;4975636;28;20262;-74
2021/06/25 12:29:47;;;;;;;2.50;1.17;;;23.10;99.90;;;;;;5007630;28;20632;-74
2021/06/25 12:32:19;;;;;;;1.87;0.70;;;23.00;99.90;;;;;;5007637;28;20183;-74
2021/06/25 12:34:46;;;;;;;0.97;0.50;;;22.80;99.90;;;;;;5007373;28;20234;-74
2021/06/25 12:37:12;;;;;;;3.20;1.00;;;22.80;99.90;;;;;;5005575;28;20492;-74
2021/06/25 12:39:42;;;;;;;1.53;0.63;;;22.90;99.90;;;;;;4984183;28;20211;-73
2021/06/25 12:42:07;;;;;;;0.87;0.87;;;22.90;99.90;;;;;;4974993;28;20714;-74
2021/06/25 12:44:33;;;;;;;1.57;1.00;;;23.00;99.90;;;;;;4974516;28;20176;-74
2021/06/25 12:47:05;;;;;;;1.30;0.90;;;23.10;99.90;;;;;;4990798;28;20196;-74
2021/06/25 12:49:33;;;;;;;1.73;0.77;;;23.20;99.90;;;;;;5002563;28;20180;-74
2021/06/25 12:51:59;;;;;;;1.17;0.73;;;23.20;99.90;;;;;;5003378;28;20180;-74
2021/06/25 12:54:30;;;;;;;1.20;0.77;;;23.30;99.90;;;;;;5010429;28;20264;-74
2021/06/25 12:56:56;;;;;;;1.30;0.83;;;23.30;99.90;;;;;;4992385;28;20207;-73
2021/06/25 12:59:23;;;;;;;1.23;0.60;;;23.20;99.90;;;;;;4977604;28;20631;-74
2021/06/25 13:01:56;;;;;;;1.07;0.73;;;23.10;99.90;;;;;;4977725;28;20673;-74
2021/06/25 13:04:22;;;;;;;2.20;1.10;;;23.10;99.90;;;;;;4990844;28;20271;-74
2021/06/25 13:06:52;;;;;;;2.80;0.90;;;23.00;99.90;;;;;;5006179;28;20270;-79